createdAt,value
2018-07-07T00:00:32.925Z,17.54
2018-07-07T00:01:32.927Z,17.60
2018-07-07T00:02:32.946Z,17.54
2018-07-07T00:03:32.949Z,17.45
2018-07-07T00:04:33.153Z,17.41
2018-07-07T00:05:32.943Z,17.27
2018-07-07T00:06:32.962Z,17.16
2018-07-07T00:07:32.960Z,17.06
2018-07-07T00:08:32.952Z,16.99
2018-07-07T00:09:32.955Z,16.87
2018-07-07T00:10:32.979Z,16.83
2018-07-07T00:11:32.972Z,16.81
2018-07-07T00:12:32.964Z,16.72
2018-07-07T00:13:33.172Z,16.72
2018-07-07T00:14:33.183Z,16.61
2018-07-07T00:15:32.990Z,16.56
2018-07-07T00:16:32.988Z,16.49
2018-07-07T00:17:33.010Z,16.49
2018-07-07T00:18:32.983Z,16.57
2018-07-07T00:19:33.003Z,16.51
2018-07-07T00:20:33.005Z,16.49
2018-07-07T00:21:33.004Z,16.42
2018-07-07T00:22:32.997Z,16.43
2018-07-07T00:23:32.999Z,16.50
2018-07-07T00:24:33.003Z,16.39
2018-07-07T00:25:33.006Z,16.38
2018-07-07T00:26:33.005Z,16.38
2018-07-07T00:27:33.032Z,16.42
2018-07-07T00:28:33.013Z,16.42
2018-07-07T00:29:33.230Z,16.43
2018-07-07T00:30:33.020Z,16.53
2018-07-07T00:31:33.020Z,16.53
2018-07-07T00:32:33.041Z,16.53
2018-07-07T00:33:33.026Z,16.53
2018-07-07T00:34:33.031Z,16.53
2018-07-07T00:35:33.259Z,16.53
2018-07-07T00:36:33.042Z,16.49
2018-07-07T00:37:33.051Z,16.56
2018-07-07T00:38:33.043Z,16.54
2018-07-07T00:39:33.044Z,16.61
2018-07-07T00:40:33.274Z,16.64
2018-07-07T00:41:33.053Z,16.61
2018-07-07T00:42:33.052Z,16.61
2018-07-07T00:43:33.065Z,16.58
2018-07-07T00:44:33.060Z,16.75
2018-07-07T00:45:33.062Z,16.76
2018-07-07T00:46:33.277Z,16.83
2018-07-07T00:47:33.068Z,16.81
2018-07-07T00:48:33.084Z,17.02
2018-07-07T00:49:33.272Z,16.99
2018-07-07T00:50:33.074Z,17.01
2018-07-07T00:51:33.094Z,17.09
2018-07-07T00:52:33.094Z,17.26
2018-07-07T00:53:33.085Z,17.27
2018-07-07T00:54:33.187Z,17.44
2018-07-07T00:55:33.298Z,17.52
2018-07-07T00:56:33.091Z,17.48
2018-07-07T00:57:33.118Z,17.51
2018-07-07T00:58:33.107Z,17.60
2018-07-07T00:59:33.116Z,17.70
2018-07-07T01:00:33.315Z,17.78
2018-07-07T01:01:33.117Z,17.85
2018-07-07T01:02:33.121Z,17.87
2018-07-07T01:03:33.122Z,17.89
2018-07-07T01:04:33.124Z,18.04
2018-07-07T01:05:33.140Z,18.00
2018-07-07T01:06:33.123Z,18.16
2018-07-07T01:07:33.136Z,18.08
2018-07-07T01:08:33.157Z,18.16
2018-07-07T01:09:33.242Z,18.07
2018-07-07T01:10:33.147Z,18.15
2018-07-07T01:11:33.338Z,18.20
2018-07-07T01:12:33.141Z,18.26
2018-07-07T01:13:33.142Z,18.29
2018-07-07T01:14:33.362Z,18.23
2018-07-07T01:15:33.350Z,18.35
2018-07-07T01:16:33.154Z,18.38
2018-07-07T01:17:33.154Z,18.33
2018-07-07T01:18:33.158Z,18.41
2018-07-07T01:19:33.175Z,18.35
2018-07-07T01:20:33.186Z,18.29
2018-07-07T01:21:33.375Z,18.28
2018-07-07T01:22:33.172Z,18.34
2018-07-07T01:23:33.377Z,18.35
2018-07-07T01:24:33.180Z,18.35
2018-07-07T01:25:33.204Z,18.28
2018-07-07T01:26:33.190Z,18.28
2018-07-07T01:27:33.189Z,18.26
2018-07-07T01:28:33.393Z,18.26
2018-07-07T01:29:33.410Z,18.35
2018-07-07T01:30:33.198Z,18.33
2018-07-07T01:31:33.409Z,18.35
2018-07-07T01:32:33.220Z,18.33
2018-07-07T01:33:33.229Z,18.28
2018-07-07T01:34:33.232Z,18.40
2018-07-07T01:35:33.225Z,18.37
2018-07-07T01:36:33.247Z,18.34
2018-07-07T01:37:33.230Z,18.45
2018-07-07T01:38:33.226Z,18.38
2018-07-07T01:39:33.241Z,18.41
2018-07-07T01:40:33.237Z,18.43
2018-07-07T01:41:33.440Z,18.45
2018-07-07T01:42:33.248Z,18.47
2018-07-07T01:43:33.247Z,18.45
2018-07-07T01:44:33.450Z,18.50
2018-07-07T01:45:33.252Z,18.59
2018-07-07T01:46:33.254Z,18.49
2018-07-07T01:47:33.264Z,18.58
2018-07-07T01:48:33.516Z,18.49
2018-07-07T01:49:33.264Z,18.58
2018-07-07T01:50:33.268Z,18.56
2018-07-07T01:51:33.271Z,18.49
2018-07-07T01:52:33.274Z,18.47
2018-07-07T01:53:33.478Z,18.45
2018-07-07T01:54:33.291Z,18.43
2018-07-07T01:55:33.288Z,18.52
2018-07-07T01:56:33.302Z,18.34
2018-07-07T01:57:33.493Z,18.35
2018-07-07T01:58:33.507Z,18.38
2018-07-07T01:59:33.501Z,18.23
2018-07-07T02:00:33.586Z,18.33
2018-07-07T02:01:33.516Z,18.31
2018-07-07T02:02:33.311Z,18.37
2018-07-07T02:03:33.315Z,18.29
2018-07-07T02:04:33.331Z,18.25
2018-07-07T02:05:33.319Z,18.31
2018-07-07T02:06:33.349Z,18.28
2018-07-07T02:07:33.529Z,18.34
2018-07-07T02:08:33.332Z,18.34
2018-07-07T02:09:33.331Z,18.33
2018-07-07T02:10:33.420Z,18.33
2018-07-07T02:11:33.349Z,18.28
2018-07-07T02:12:33.545Z,18.35
2018-07-07T02:13:33.350Z,18.29
2018-07-07T02:14:33.561Z,18.33
2018-07-07T02:15:33.363Z,18.28
2018-07-07T02:16:33.355Z,18.26
2018-07-07T02:17:33.355Z,18.26
2018-07-07T02:18:33.359Z,18.26
2018-07-07T02:19:33.366Z,18.38
2018-07-07T02:20:33.372Z,18.41
2018-07-07T02:21:33.381Z,18.29
2018-07-07T02:22:33.377Z,18.31
2018-07-07T02:23:33.375Z,18.33
2018-07-07T02:24:33.585Z,18.33
2018-07-07T02:25:33.595Z,18.23
2018-07-07T02:26:33.386Z,18.28
2018-07-07T02:27:33.390Z,18.34
2018-07-07T02:28:33.391Z,18.38
2018-07-07T02:29:33.408Z,18.35
2018-07-07T02:30:33.397Z,18.35
2018-07-07T02:31:33.411Z,18.28
2018-07-07T02:32:33.425Z,18.34
2018-07-07T02:33:33.609Z,18.34
2018-07-07T02:34:33.413Z,18.35
2018-07-07T02:35:33.428Z,18.34
2018-07-07T02:36:33.427Z,18.29
2018-07-07T02:37:33.429Z,18.29
2018-07-07T02:38:33.452Z,18.34
2018-07-07T02:39:33.642Z,18.26
2018-07-07T02:40:33.440Z,18.29
2018-07-07T02:41:33.632Z,18.26
2018-07-07T02:42:33.654Z,18.37
2018-07-07T02:43:33.654Z,18.37
2018-07-07T02:44:33.443Z,18.35
2018-07-07T02:45:33.446Z,18.23
2018-07-07T02:46:33.462Z,18.25
2018-07-07T02:47:33.654Z,18.23
2018-07-07T02:48:33.468Z,18.23
2018-07-07T02:49:33.489Z,18.22
2018-07-07T02:50:33.462Z,18.23
2018-07-07T02:51:33.489Z,18.22
2018-07-07T02:52:33.470Z,18.20
2018-07-07T02:53:33.476Z,18.15
2018-07-07T02:54:33.471Z,18.15
2018-07-07T02:55:33.489Z,18.15
2018-07-07T02:56:33.480Z,18.15
2018-07-07T02:57:33.480Z,18.15
2018-07-07T02:58:33.703Z,18.08
2018-07-07T02:59:33.488Z,18.10
2018-07-07T03:00:33.695Z,18.10
2018-07-07T03:01:33.505Z,18.07
2018-07-07T03:02:33.699Z,18.18
2018-07-07T03:03:33.503Z,18.20
2018-07-07T03:04:33.507Z,18.25
2018-07-07T03:05:33.508Z,18.26
2018-07-07T03:06:33.510Z,18.26
2018-07-07T03:07:33.523Z,18.37
2018-07-07T03:08:33.518Z,18.35
2018-07-07T03:09:33.537Z,18.22
2018-07-07T03:10:33.532Z,18.35
2018-07-07T03:11:33.524Z,18.28
2018-07-07T03:12:33.540Z,18.31
2018-07-07T03:13:33.747Z,18.35
2018-07-07T03:14:33.534Z,18.38
2018-07-07T03:15:33.750Z,18.37
2018-07-07T03:16:33.541Z,18.26
2018-07-07T03:17:33.542Z,18.29
2018-07-07T03:18:33.556Z,18.20
2018-07-07T03:19:33.550Z,18.22
2018-07-07T03:20:33.562Z,18.20
2018-07-07T03:21:33.552Z,18.13
2018-07-07T03:22:33.571Z,18.10
2018-07-07T03:23:33.560Z,18.10
2018-07-07T03:24:33.564Z,18.19
2018-07-07T03:25:33.770Z,18.15
2018-07-07T03:26:33.570Z,18.13
2018-07-07T03:27:33.581Z,18.19
2018-07-07T03:28:33.574Z,18.11
2018-07-07T03:29:33.578Z,18.11
2018-07-07T03:30:33.605Z,18.13
2018-07-07T03:31:33.598Z,18.00
2018-07-07T03:32:33.598Z,18.10
2018-07-07T03:33:33.600Z,18.15
2018-07-07T03:34:33.594Z,18.10
2018-07-07T03:35:33.607Z,18.01
2018-07-07T03:36:33.823Z,18.01
2018-07-07T03:37:33.603Z,18.11
2018-07-07T03:38:33.621Z,18.05
2018-07-07T03:39:33.620Z,17.98
2018-07-07T03:40:33.613Z,18.05
2018-07-07T03:41:33.625Z,17.97
2018-07-07T03:42:33.621Z,18.03
2018-07-07T03:43:33.823Z,18.19
2018-07-07T03:44:33.654Z,18.11
2018-07-07T03:45:33.625Z,18.11
2018-07-07T03:46:33.660Z,18.16
2018-07-07T03:47:33.648Z,18.10
2018-07-07T03:48:33.638Z,18.16
2018-07-07T03:49:33.638Z,18.15
2018-07-07T03:50:33.664Z,18.13
2018-07-07T03:51:33.646Z,18.13
2018-07-07T03:52:33.863Z,18.13
2018-07-07T03:53:33.680Z,18.13
2018-07-07T03:54:33.654Z,18.11
2018-07-07T03:55:33.659Z,18.22
2018-07-07T03:56:33.865Z,18.26
2018-07-07T03:57:33.676Z,18.26
2018-07-07T03:58:33.666Z,18.28
2018-07-07T03:59:33.680Z,18.25
2018-07-07T04:00:33.688Z,18.34
2018-07-07T04:01:33.675Z,18.33
2018-07-07T04:02:33.679Z,18.40
2018-07-07T04:03:33.683Z,18.31
2018-07-07T04:04:33.686Z,18.43
2018-07-07T04:05:33.890Z,18.38
2018-07-07T04:06:33.701Z,18.47
2018-07-07T04:07:33.910Z,18.47
2018-07-07T04:08:33.911Z,18.43
2018-07-07T04:09:33.701Z,18.53
2018-07-07T04:10:33.725Z,18.53
2018-07-07T04:11:33.718Z,18.52
2018-07-07T04:12:33.714Z,18.56
2018-07-07T04:13:33.713Z,18.50
2018-07-07T04:14:33.919Z,18.49
2018-07-07T04:15:33.938Z,18.44
2018-07-07T04:16:33.724Z,18.38
2018-07-07T04:17:33.928Z,18.38
2018-07-07T04:18:33.945Z,18.33
2018-07-07T04:19:33.747Z,18.41
2018-07-07T04:20:33.737Z,18.35
2018-07-07T04:21:33.943Z,18.34
2018-07-07T04:22:33.757Z,18.34
2018-07-07T04:23:33.763Z,18.35
2018-07-07T04:24:33.954Z,18.25
2018-07-07T04:25:33.764Z,18.22
2018-07-07T04:26:33.755Z,18.35
2018-07-07T04:27:33.770Z,18.25
2018-07-07T04:28:33.791Z,18.25
2018-07-07T04:29:33.776Z,18.10
2018-07-07T04:30:33.780Z,18.04
2018-07-07T04:31:33.779Z,17.97
2018-07-07T04:32:33.780Z,18.01
2018-07-07T04:33:33.980Z,17.98
2018-07-07T04:34:33.785Z,17.86
2018-07-07T04:35:33.997Z,17.80
2018-07-07T04:36:33.799Z,17.86
2018-07-07T04:37:33.803Z,17.83
2018-07-07T04:38:33.794Z,17.82
2018-07-07T04:39:33.807Z,17.86
2018-07-07T04:40:33.814Z,17.86
2018-07-07T04:41:33.817Z,17.80
2018-07-07T04:42:33.825Z,17.85
2018-07-07T04:43:34.016Z,17.82
2018-07-07T04:44:33.825Z,17.82
2018-07-07T04:45:33.815Z,17.83
2018-07-07T04:46:33.835Z,17.82
2018-07-07T04:47:33.821Z,17.74
2018-07-07T04:48:33.837Z,17.74
2018-07-07T04:49:34.029Z,17.71
2018-07-07T04:50:33.833Z,17.72
2018-07-07T04:51:33.836Z,17.64
2018-07-07T04:52:33.837Z,17.60
2018-07-07T04:53:33.844Z,17.57
2018-07-07T04:54:34.045Z,17.57
2018-07-07T04:55:33.850Z,17.49
2018-07-07T04:56:33.851Z,17.57
2018-07-07T04:57:33.864Z,17.48
2018-07-07T04:58:33.861Z,17.44
2018-07-07T04:59:33.858Z,17.41
2018-07-07T05:00:34.064Z,17.38
2018-07-07T05:01:34.116Z,17.38
2018-07-07T05:02:33.866Z,17.34
2018-07-07T05:03:33.872Z,17.38
2018-07-07T05:04:34.137Z,17.34
2018-07-07T05:05:34.079Z,17.30
2018-07-07T05:06:33.879Z,17.33
2018-07-07T05:07:33.880Z,17.27
2018-07-07T05:08:33.897Z,17.27
2018-07-07T05:09:33.901Z,17.27
2018-07-07T05:10:33.891Z,17.27
2018-07-07T05:11:34.098Z,17.24
2018-07-07T05:12:33.904Z,17.23
2018-07-07T05:13:33.897Z,17.22
2018-07-07T05:14:33.913Z,17.23
2018-07-07T05:15:34.015Z,17.24
2018-07-07T05:16:33.907Z,17.24
2018-07-07T05:17:33.910Z,17.26
2018-07-07T05:18:34.127Z,17.23
2018-07-07T05:19:33.937Z,17.29
2018-07-07T05:20:33.918Z,17.22
2018-07-07T05:21:33.934Z,17.27
2018-07-07T05:22:33.923Z,17.26
2018-07-07T05:23:33.926Z,17.24
2018-07-07T05:24:33.941Z,17.38
2018-07-07T05:25:34.144Z,17.39
2018-07-07T05:26:34.139Z,17.38
2018-07-07T05:27:33.941Z,17.56
2018-07-07T05:28:33.939Z,17.57
2018-07-07T05:29:33.943Z,17.67
2018-07-07T05:30:33.948Z,17.51
2018-07-07T05:31:33.948Z,17.63
2018-07-07T05:32:33.953Z,17.76
2018-07-07T05:33:33.953Z,17.79
2018-07-07T05:34:33.968Z,17.83
2018-07-07T05:35:33.973Z,17.92
2018-07-07T05:36:33.973Z,18.03
2018-07-07T05:37:33.966Z,18.01
2018-07-07T05:38:33.977Z,18.11
2018-07-07T05:39:33.972Z,18.11
2018-07-07T05:40:33.975Z,18.28
2018-07-07T05:41:33.988Z,18.37
2018-07-07T05:42:34.203Z,18.33
2018-07-07T05:43:34.182Z,18.37
2018-07-07T05:44:34.200Z,18.38
2018-07-07T05:45:33.987Z,18.40
2018-07-07T05:46:34.210Z,18.44
2018-07-07T05:47:34.196Z,18.52
2018-07-07T05:48:34.011Z,18.49
2018-07-07T05:49:34.013Z,18.60
2018-07-07T05:50:34.015Z,18.60
2018-07-07T05:51:34.026Z,18.68
2018-07-07T05:52:34.032Z,18.65
2018-07-07T05:53:34.025Z,18.73
2018-07-07T05:54:34.041Z,18.83
2018-07-07T05:55:34.029Z,18.81
2018-07-07T05:56:34.223Z,18.88
2018-07-07T05:57:34.028Z,18.93
2018-07-07T05:58:34.248Z,18.93
2018-07-07T05:59:34.043Z,19.07
2018-07-07T06:00:34.043Z,19.08
2018-07-07T06:01:34.061Z,19.15
2018-07-07T06:02:34.051Z,19.22
2018-07-07T06:03:34.043Z,19.26
2018-07-07T06:04:34.059Z,19.26
2018-07-07T06:05:34.053Z,19.31
2018-07-07T06:06:34.056Z,19.26
2018-07-07T06:07:34.258Z,19.31
2018-07-07T06:08:34.077Z,19.33
2018-07-07T06:09:34.062Z,19.36
2018-07-07T06:10:34.278Z,19.40
2018-07-07T06:11:34.079Z,19.45
2018-07-07T06:12:34.086Z,19.51
2018-07-07T06:13:34.076Z,19.45
2018-07-07T06:14:34.102Z,19.45
2018-07-07T06:15:34.098Z,19.52
2018-07-07T06:16:34.085Z,19.33
2018-07-07T06:17:34.305Z,19.37
2018-07-07T06:18:34.294Z,19.37
2018-07-07T06:19:34.115Z,19.44
2018-07-07T06:20:34.100Z,19.41
2018-07-07T06:21:34.102Z,19.39
2018-07-07T06:22:34.115Z,19.37
2018-07-07T06:23:34.121Z,19.40
2018-07-07T06:24:34.316Z,19.39
2018-07-07T06:25:34.132Z,19.51
2018-07-07T06:26:34.223Z,19.47
2018-07-07T06:27:34.125Z,19.48
2018-07-07T06:28:34.140Z,19.45
2018-07-07T06:29:34.139Z,19.48
2018-07-07T06:30:34.133Z,19.44
2018-07-07T06:31:34.341Z,19.45
2018-07-07T06:32:34.151Z,19.54
2018-07-07T06:33:34.186Z,19.52
2018-07-07T06:34:34.146Z,19.64
2018-07-07T06:35:34.149Z,19.64
2018-07-07T06:36:34.170Z,19.73
2018-07-07T06:37:34.155Z,19.88
2018-07-07T06:38:34.188Z,20.07
2018-07-07T06:39:34.172Z,20.02
2018-07-07T06:40:34.169Z,20.07
2018-07-07T06:41:34.174Z,20.16
2018-07-07T06:42:34.177Z,20.16
2018-07-07T06:43:34.198Z,20.13
2018-07-07T06:44:34.180Z,20.13
2018-07-07T06:45:34.185Z,20.21
2018-07-07T06:46:34.185Z,20.22
2018-07-07T06:47:34.209Z,20.28
2018-07-07T06:48:34.194Z,20.26
2018-07-07T06:49:34.400Z,20.24
2018-07-07T06:50:34.204Z,20.29
2018-07-07T06:51:34.208Z,20.34
2018-07-07T06:52:34.413Z,20.40
2018-07-07T06:53:34.237Z,20.52
2018-07-07T06:54:34.219Z,20.52
2018-07-07T06:55:34.233Z,20.47
2018-07-07T06:56:34.439Z,20.51
2018-07-07T06:57:34.431Z,20.50
2018-07-07T06:58:34.450Z,20.55
2018-07-07T06:59:34.250Z,20.65
2018-07-07T07:00:34.239Z,20.58
2018-07-07T07:01:34.244Z,20.66
2018-07-07T07:02:34.249Z,20.72
2018-07-07T07:03:34.358Z,20.87
2018-07-07T07:04:34.278Z,20.85
2018-07-07T07:05:34.259Z,20.95
2018-07-07T07:06:34.362Z,20.96
2018-07-07T07:07:34.468Z,21.03
2018-07-07T07:08:34.474Z,21.17
2018-07-07T07:09:34.277Z,21.21
2018-07-07T07:10:34.278Z,21.25
2018-07-07T07:11:34.281Z,21.30
2018-07-07T07:12:34.295Z,21.27
2018-07-07T07:13:34.286Z,21.29
2018-07-07T07:14:34.498Z,21.20
2018-07-07T07:15:34.308Z,21.25
2018-07-07T07:16:34.506Z,21.24
2018-07-07T07:17:34.303Z,21.06
2018-07-07T07:18:34.510Z,21.15
2018-07-07T07:19:34.325Z,21.03
2018-07-07T07:20:34.318Z,21.03
2018-07-07T07:21:34.318Z,20.96
2018-07-07T07:22:34.340Z,21.00
2018-07-07T07:23:34.544Z,21.02
2018-07-07T07:24:34.335Z,20.99
2018-07-07T07:25:34.351Z,21.00
2018-07-07T07:26:34.553Z,21.03
2018-07-07T07:27:34.558Z,21.06
2018-07-07T07:28:34.347Z,21.18
2018-07-07T07:29:34.354Z,21.20
2018-07-07T07:30:34.355Z,21.33
2018-07-07T07:31:34.375Z,21.45
2018-07-07T07:32:34.365Z,21.60
2018-07-07T07:33:34.392Z,21.66
2018-07-07T07:34:34.381Z,21.83
2018-07-07T07:35:34.377Z,21.91
2018-07-07T07:36:34.391Z,21.95
2018-07-07T07:37:34.406Z,21.89
2018-07-07T07:38:34.423Z,21.82
2018-07-07T07:39:34.405Z,21.69
2018-07-07T07:40:34.425Z,21.57
2018-07-07T07:41:34.402Z,21.60
2018-07-07T07:42:34.431Z,21.61
2018-07-07T07:43:34.425Z,21.76
2018-07-07T07:44:34.424Z,21.88
2018-07-07T07:45:34.444Z,21.82
2018-07-07T07:46:34.423Z,21.61
2018-07-07T07:47:34.425Z,21.60
2018-07-07T07:48:34.428Z,21.60
2018-07-07T07:49:34.433Z,21.45
2018-07-07T07:50:34.438Z,21.42
2018-07-07T07:51:34.453Z,21.43
2018-07-07T07:52:34.445Z,21.42
2018-07-07T07:53:34.451Z,21.42
2018-07-07T07:54:34.465Z,21.39
2018-07-07T07:55:34.516Z,21.52
2018-07-07T07:56:34.466Z,21.51
2018-07-07T07:57:34.480Z,21.55
2018-07-07T07:58:34.470Z,21.52
2018-07-07T07:59:34.484Z,21.58
2018-07-07T08:00:34.479Z,21.45
2018-07-07T08:01:34.511Z,21.52
2018-07-07T08:02:34.513Z,21.57
2018-07-07T08:03:34.492Z,21.58
2018-07-07T08:04:34.508Z,21.62
2018-07-07T08:05:34.509Z,21.60
2018-07-07T08:06:34.527Z,21.54
2018-07-07T08:07:34.521Z,21.46
2018-07-07T08:08:34.512Z,21.32
2018-07-07T08:09:34.525Z,21.33
2018-07-07T08:10:34.530Z,21.39
2018-07-07T08:11:34.525Z,21.39
2018-07-07T08:12:34.531Z,21.46
2018-07-07T08:13:34.540Z,21.52
2018-07-07T08:14:34.538Z,21.57
2018-07-07T08:15:34.557Z,21.58
2018-07-07T08:16:34.605Z,21.62
2018-07-07T08:17:34.561Z,21.57
2018-07-07T08:18:34.568Z,21.60
2018-07-07T08:19:34.557Z,21.75
2018-07-07T08:20:34.596Z,21.91
2018-07-07T08:21:34.571Z,22.07
2018-07-07T08:22:34.805Z,22.15
2018-07-07T08:23:34.591Z,22.25
2018-07-07T08:24:34.595Z,22.20
2018-07-07T08:25:34.600Z,22.36
2018-07-07T08:26:34.590Z,22.44
2018-07-07T08:27:34.809Z,22.57
2018-07-07T08:28:34.656Z,22.72
2018-07-07T08:29:34.622Z,22.91
2018-07-07T08:30:34.650Z,23.06
2018-07-07T08:31:34.680Z,22.93
2018-07-07T08:32:34.816Z,23.10
2018-07-07T08:33:34.644Z,23.13
2018-07-07T08:34:34.666Z,22.88
2018-07-07T08:35:34.657Z,22.75
2018-07-07T08:36:34.637Z,22.72
2018-07-07T08:37:34.666Z,22.69
2018-07-07T08:38:34.654Z,22.57
2018-07-07T08:39:34.862Z,22.48
2018-07-07T08:40:34.662Z,22.50
2018-07-07T08:41:34.663Z,22.41
2018-07-07T08:42:34.860Z,22.35
2018-07-07T08:43:34.668Z,22.47
2018-07-07T08:44:34.669Z,22.33
2018-07-07T08:45:34.681Z,22.50
2018-07-07T08:46:34.909Z,22.29
2018-07-07T08:47:34.692Z,22.36
2018-07-07T08:48:34.698Z,22.30
2018-07-07T08:49:34.701Z,22.23
2018-07-07T08:50:34.694Z,22.06
2018-07-07T08:51:34.698Z,22.07
2018-07-07T08:52:34.712Z,21.93
2018-07-07T08:53:34.715Z,21.98
2018-07-07T08:54:34.709Z,21.91
2018-07-07T08:55:34.731Z,21.93
2018-07-07T08:56:34.721Z,21.99
2018-07-07T08:57:34.923Z,22.06
2018-07-07T08:58:34.736Z,22.13
2018-07-07T08:59:34.732Z,22.15
2018-07-07T09:00:34.936Z,22.32
2018-07-07T09:01:34.936Z,22.39
2018-07-07T09:02:34.744Z,22.43
2018-07-07T09:03:34.749Z,22.41
2018-07-07T09:04:34.755Z,22.30
2018-07-07T09:05:34.954Z,22.25
2018-07-07T09:06:34.784Z,22.29
2018-07-07T09:07:34.830Z,22.44
2018-07-07T09:08:34.771Z,22.48
2018-07-07T09:09:34.787Z,22.51
2018-07-07T09:10:34.773Z,22.44
2018-07-07T09:11:34.777Z,22.38
2018-07-07T09:12:34.780Z,22.48
2018-07-07T09:13:34.790Z,22.62
2018-07-07T09:14:34.992Z,22.44
2018-07-07T09:15:34.997Z,22.47
2018-07-07T09:16:35.000Z,22.53
2018-07-07T09:17:35.005Z,22.62
2018-07-07T09:18:35.021Z,22.57
2018-07-07T09:19:34.808Z,22.47
2018-07-07T09:20:34.812Z,22.54
2018-07-07T09:21:34.818Z,22.50
2018-07-07T09:22:34.820Z,22.41
2018-07-07T09:23:34.835Z,22.45
2018-07-07T09:24:34.880Z,22.39
2018-07-07T09:25:34.839Z,22.32
2018-07-07T09:26:34.840Z,22.44
2018-07-07T09:27:34.847Z,22.41
2018-07-07T09:28:35.059Z,22.65
2018-07-07T09:29:34.858Z,22.66
2018-07-07T09:30:35.064Z,22.76
2018-07-07T09:31:34.857Z,22.76
2018-07-07T09:32:34.863Z,22.76
2018-07-07T09:33:35.067Z,22.68
2018-07-07T09:34:34.880Z,22.63
2018-07-07T09:35:34.875Z,22.51
2018-07-07T09:36:34.891Z,22.44
2018-07-07T09:37:34.879Z,22.47
2018-07-07T09:38:34.883Z,22.41
2018-07-07T09:39:34.899Z,22.45
2018-07-07T09:40:34.895Z,22.39
2018-07-07T09:41:35.099Z,22.51
2018-07-07T09:42:35.106Z,22.50
2018-07-07T09:43:35.120Z,22.54
2018-07-07T09:44:35.158Z,22.62
2018-07-07T09:45:34.925Z,22.65
2018-07-07T09:46:34.916Z,22.54
2018-07-07T09:47:34.933Z,22.65
2018-07-07T09:48:34.925Z,22.53
2018-07-07T09:49:34.941Z,22.57
2018-07-07T09:50:34.967Z,22.41
2018-07-07T09:51:34.949Z,22.50
2018-07-07T09:52:35.155Z,22.44
2018-07-07T09:53:34.960Z,22.60
2018-07-07T09:54:35.152Z,22.62
2018-07-07T09:55:34.962Z,22.65
2018-07-07T09:56:35.166Z,22.75
2018-07-07T09:57:34.970Z,22.80
2018-07-07T09:58:34.974Z,22.83
2018-07-07T09:59:34.986Z,22.85
2018-07-07T10:00:34.999Z,22.73
2018-07-07T10:01:34.979Z,22.81
2018-07-07T10:02:35.185Z,22.81
2018-07-07T10:03:35.202Z,22.96
2018-07-07T10:04:35.207Z,22.98
2018-07-07T10:05:35.021Z,22.98
2018-07-07T10:06:34.996Z,22.81
2018-07-07T10:07:35.271Z,22.83
2018-07-07T10:08:35.006Z,22.85
2018-07-07T10:09:35.022Z,22.88
2018-07-07T10:10:35.015Z,22.73
2018-07-07T10:11:35.035Z,22.68
2018-07-07T10:12:35.040Z,22.66
2018-07-07T10:13:35.106Z,22.69
2018-07-07T10:14:35.029Z,22.76
2018-07-07T10:15:35.036Z,22.73
2018-07-07T10:16:35.051Z,22.98
2018-07-07T10:17:35.084Z,23.06
2018-07-07T10:18:35.061Z,23.18
2018-07-07T10:19:35.070Z,23.34
2018-07-07T10:20:35.296Z,23.36
2018-07-07T10:21:35.077Z,23.17
2018-07-07T10:22:35.069Z,23.20
2018-07-07T10:23:35.075Z,23.20
2018-07-07T10:24:35.086Z,23.34
2018-07-07T10:25:35.090Z,23.36
2018-07-07T10:26:35.080Z,23.28
2018-07-07T10:27:35.083Z,23.31
2018-07-07T10:28:35.122Z,23.32
2018-07-07T10:29:35.108Z,23.37
2018-07-07T10:30:35.100Z,23.20
2018-07-07T10:31:35.196Z,23.20
2018-07-07T10:32:35.110Z,23.23
2018-07-07T10:33:35.113Z,23.21
2018-07-07T10:34:35.113Z,23.18
2018-07-07T10:35:35.121Z,23.15
2018-07-07T10:36:35.126Z,23.00
2018-07-07T10:37:35.161Z,22.99
2018-07-07T10:38:35.134Z,23.09
2018-07-07T10:39:35.137Z,23.08
2018-07-07T10:40:35.141Z,23.17
2018-07-07T10:41:35.144Z,23.00
2018-07-07T10:42:35.162Z,23.00
2018-07-07T10:43:35.154Z,23.05
2018-07-07T10:44:35.163Z,23.08
2018-07-07T10:45:35.212Z,23.09
2018-07-07T10:46:35.171Z,22.88
2018-07-07T10:47:35.171Z,22.94
2018-07-07T10:48:35.189Z,22.81
2018-07-07T10:49:35.179Z,22.76
2018-07-07T10:50:35.184Z,22.85
2018-07-07T10:51:35.194Z,22.85
2018-07-07T10:52:35.205Z,22.91
2018-07-07T10:53:35.202Z,23.00
2018-07-07T10:54:35.203Z,22.96
2018-07-07T10:55:35.281Z,22.96
2018-07-07T10:56:35.220Z,22.94
2018-07-07T10:57:35.226Z,23.02
2018-07-07T10:58:35.232Z,23.02
2018-07-07T10:59:35.240Z,23.17
2018-07-07T11:00:35.241Z,23.24
2018-07-07T11:01:35.234Z,23.34
2018-07-07T11:02:35.312Z,23.34
2018-07-07T11:03:35.246Z,23.43
2018-07-07T11:04:35.248Z,23.46
2018-07-07T11:05:35.256Z,23.44
2018-07-07T11:06:35.460Z,23.44
2018-07-07T11:07:35.263Z,23.62
2018-07-07T11:08:35.270Z,23.58
2018-07-07T11:09:35.270Z,23.59
2018-07-07T11:10:35.284Z,23.65
2018-07-07T11:11:35.278Z,23.74
2018-07-07T11:12:35.308Z,23.99
2018-07-07T11:13:35.289Z,24.02
2018-07-07T11:14:35.295Z,23.92
2018-07-07T11:15:35.312Z,23.83
2018-07-07T11:16:35.304Z,23.81
2018-07-07T11:17:35.339Z,23.78
2018-07-07T11:18:35.326Z,23.66
2018-07-07T11:19:35.328Z,23.56
2018-07-07T11:20:35.321Z,23.69
2018-07-07T11:21:35.331Z,23.92
2018-07-07T11:22:35.351Z,23.87
2018-07-07T11:23:35.354Z,23.78
2018-07-07T11:24:35.357Z,23.81
2018-07-07T11:25:35.352Z,23.62
2018-07-07T11:26:35.352Z,23.62
2018-07-07T11:27:35.356Z,23.46
2018-07-07T11:28:35.371Z,23.48
2018-07-07T11:29:35.360Z,23.46
2018-07-07T11:30:35.367Z,23.61
2018-07-07T11:31:35.396Z,23.74
2018-07-07T11:32:35.374Z,23.68
2018-07-07T11:33:35.392Z,23.78
2018-07-07T11:34:35.399Z,23.96
2018-07-07T11:35:35.402Z,24.11
2018-07-07T11:36:35.522Z,24.17
2018-07-07T11:37:35.425Z,24.20
2018-07-07T11:38:35.410Z,24.14
2018-07-07T11:39:35.422Z,24.14
2018-07-07T11:40:35.414Z,24.18
2018-07-07T11:41:35.417Z,24.39
2018-07-07T11:42:35.422Z,24.24
2018-07-07T11:43:35.436Z,24.11
2018-07-07T11:44:35.433Z,24.20
2018-07-07T11:45:35.456Z,24.23
2018-07-07T11:46:35.448Z,24.23
2018-07-07T11:47:35.462Z,24.14
2018-07-07T11:48:35.456Z,24.10
2018-07-07T11:49:35.467Z,24.10
2018-07-07T11:50:35.478Z,24.01
2018-07-07T11:51:35.464Z,24.17
2018-07-07T11:52:35.481Z,24.06
2018-07-07T11:53:35.484Z,24.02
2018-07-07T11:54:35.477Z,24.08
2018-07-07T11:55:35.486Z,24.14
2018-07-07T11:56:35.490Z,24.18
2018-07-07T11:57:35.494Z,24.06
2018-07-07T11:58:35.503Z,24.20
2018-07-07T11:59:35.509Z,24.32
2018-07-07T12:00:35.523Z,24.33
2018-07-07T12:01:35.513Z,24.20
2018-07-07T12:02:35.519Z,24.24
2018-07-07T12:03:35.522Z,24.18
2018-07-07T12:04:35.548Z,24.21
2018-07-07T12:05:35.533Z,24.18
2018-07-07T12:06:35.537Z,24.23
2018-07-07T12:07:35.541Z,24.21
2018-07-07T12:08:35.544Z,24.21
2018-07-07T12:09:35.553Z,24.23
2018-07-07T12:10:35.555Z,24.39
2018-07-07T12:11:35.570Z,24.47
2018-07-07T12:12:35.574Z,24.32
2018-07-07T12:13:35.579Z,24.43
2018-07-07T12:14:35.590Z,24.42
2018-07-07T12:15:35.579Z,24.40
2018-07-07T12:16:35.586Z,24.43
2018-07-07T12:17:35.612Z,24.36
2018-07-07T12:18:35.592Z,24.21
2018-07-07T12:19:35.596Z,24.18
2018-07-07T12:20:35.603Z,24.20
2018-07-07T12:21:35.607Z,24.20
2018-07-07T12:22:35.615Z,24.17
2018-07-07T12:23:35.619Z,24.08
2018-07-07T12:24:35.625Z,24.08
2018-07-07T12:25:35.635Z,24.17
2018-07-07T12:26:35.658Z,24.36
2018-07-07T12:27:35.649Z,24.39
2018-07-07T12:28:35.657Z,24.51
2018-07-07T12:29:35.646Z,24.53
2018-07-07T12:30:35.662Z,24.57
2018-07-07T12:31:35.655Z,24.60
2018-07-07T12:32:35.661Z,24.42
2018-07-07T12:33:35.678Z,24.39
2018-07-07T12:34:35.701Z,24.38
2018-07-07T12:35:35.689Z,24.24
2018-07-07T12:36:35.704Z,24.23
2018-07-07T12:37:35.890Z,24.30
2018-07-07T12:38:35.710Z,24.13
2018-07-07T12:39:35.699Z,24.17
2018-07-07T12:40:35.801Z,24.20
2018-07-07T12:41:35.920Z,24.17
2018-07-07T12:42:35.713Z,24.20
2018-07-07T12:43:35.795Z,24.01
2018-07-07T12:44:35.771Z,24.03
2018-07-07T12:45:35.735Z,24.10
2018-07-07T12:46:35.731Z,24.08
2018-07-07T12:47:35.748Z,24.38
2018-07-07T12:48:35.753Z,24.54
2018-07-07T12:49:35.754Z,24.58
2018-07-07T12:50:35.755Z,24.65
2018-07-07T12:51:35.965Z,24.73
2018-07-07T12:52:35.762Z,24.80